Main page
METAR-TAF:

METAR-TAF

Airports :

Žilina Airport

Žilina, Slovakia

latitude: 49-14N, longitude: 018-36-49E, elevation: 312 m

Current weather observation

The report was made 23 minutes ago, at 23:30 UTC
Wind 2 kt from the Northeast
Temperature 14°C
Humidity 94%
Pressure 1014 hPa
Visibility 10 km or more
no clouds below 1500 m and no cumulonimbus

METAR: LZZI 202330Z 05002KT CAVOK 14/13 Q1014

Time: 01:53 (23:53 UTC)

Forecast

The report was made 53 minutes ago, at 23:00 UTC
Forecast valid from 21 at 00 UTC to 21 at 09 UTC
Wind 2 kt from variable directions
Visibility 10 km or more
no clouds below 1500 m and no cumulonimbus
Temporary
from 21 at 01 UTC to 21 at 06 UTC
Visibility: 4000 m
Scattered clouds at a height of 300 ft
Shallow fog
Probability 30%
from 21 at 03 UTC to 21 at 05 UTC
Visibility: 0600 m
Broken clouds at a height of 100 ft
fog

TAF: LZZI 202300Z 2100/2109 VRB02KT CAVOK TEMPO 2101/2106 4000 MIFG SCT003 PROB30 2103/2105 0600 FG BKN001

Weather observations and forecasts of more than 4000 airports (METAR and TAF reports).

The available stations are represented by yellow and red dots on the map.

Hover mouse over dot to see the name of the station.

Then click to see weather observations and forecasts.

To change the map : click on the green buttons with a black cross to zoom in, on the green button with a dash to zoom out, or on the green arrows for adjacent maps.


METAR-TAF: